createdAt,value
2018-04-15T00:01:28.258Z,97805
2018-04-15T00:03:56.421Z,97804
2018-04-15T00:06:24.624Z,97807
2018-04-15T00:08:52.789Z,97799
2018-04-15T00:11:20.956Z,97794
2018-04-15T00:13:49.126Z,97791
2018-04-15T00:16:17.307Z,97788
2018-04-15T00:18:45.475Z,97785
2018-04-15T00:21:13.670Z,97784
2018-04-15T00:23:41.840Z,97779
2018-04-15T00:26:10.026Z,97774
2018-04-15T00:28:38.193Z,97772
2018-04-15T00:31:06.357Z,97771
2018-04-15T00:33:34.530Z,97767
2018-04-15T00:36:02.694Z,97764
2018-04-15T00:38:30.857Z,97759
2018-04-15T00:40:59.029Z,97749
2018-04-15T00:43:27.232Z,97753
2018-04-15T00:45:55.425Z,97750
2018-04-15T00:48:23.607Z,97746
2018-04-15T00:50:52.554Z,97732
2018-04-15T00:53:20.732Z,97727
2018-04-15T00:55:48.914Z,97723
2018-04-15T00:58:17.082Z,97719
2018-04-15T01:00:45.250Z,97714
2018-04-15T01:03:13.417Z,97710
2018-04-15T01:05:41.587Z,97715
2018-04-15T01:08:09.841Z,97708
2018-04-15T01:10:38.779Z,97693
2018-04-15T01:13:06.942Z,97693
2018-04-15T01:15:35.132Z,97693
2018-04-15T01:18:03.296Z,97693
2018-04-15T01:20:31.453Z,97698
2018-04-15T01:22:59.853Z,97685
2018-04-15T01:25:28.012Z,97687
2018-04-15T01:27:56.203Z,97689
2018-04-15T01:30:24.374Z,97694
2018-04-15T01:32:52.538Z,97697
2018-04-15T01:35:20.705Z,97699
2018-04-15T01:37:48.888Z,97698
2018-04-15T01:40:17.072Z,97696
2018-04-15T01:42:45.236Z,97694
2018-04-15T01:45:13.407Z,97696
2018-04-15T01:47:41.573Z,97700
2018-04-15T01:50:09.753Z,97696
2018-04-15T01:52:37.926Z,97684
2018-04-15T01:55:06.090Z,97682
2018-04-15T01:57:34.253Z,97679
2018-04-15T02:00:03.200Z,97678
2018-04-15T02:02:31.361Z,97682
2018-04-15T02:04:59.520Z,97668
2018-04-15T02:07:27.695Z,97655
2018-04-15T02:09:55.865Z,97664
2018-04-15T02:12:24.049Z,97662
2018-04-15T02:14:52.216Z,97654
2018-04-15T02:17:20.395Z,97650
2018-04-15T02:19:48.571Z,97654
2018-04-15T02:22:16.753Z,97657
2018-04-15T02:24:44.923Z,97655
2018-04-15T02:27:13.091Z,97651
2018-04-15T02:29:41.317Z,97650
2018-04-15T02:32:10.255Z,97652
2018-04-15T02:34:38.423Z,97650
2018-04-15T02:37:06.605Z,97649
2018-04-15T02:39:34.785Z,97649
2018-04-15T02:42:02.984Z,97651
2018-04-15T02:44:31.163Z,97650
2018-04-15T02:46:59.360Z,97656
2018-04-15T02:49:28.363Z,97654
2018-04-15T02:51:57.314Z,97644
2018-04-15T02:54:25.508Z,97651
2018-04-15T02:56:54.425Z,97652
2018-04-15T02:59:23.359Z,97658
2018-04-15T03:01:51.528Z,97661
2018-04-15T03:04:19.704Z,97645
2018-04-15T03:06:47.889Z,97656
2018-04-15T03:09:16.071Z,97649
2018-04-15T03:11:44.238Z,97654
2018-04-15T03:14:12.405Z,97658
2018-04-15T03:16:40.599Z,97647
2018-04-15T03:19:08.784Z,97642
2018-04-15T03:21:36.954Z,97645
2018-04-15T03:24:05.137Z,97640
2018-04-15T03:26:33.303Z,97638
2018-04-15T03:29:01.476Z,97633
2018-04-15T03:31:29.653Z,97629
2018-04-15T03:33:57.817Z,97625
2018-04-15T03:36:25.976Z,97625
2018-04-15T03:38:54.173Z,97628
2018-04-15T03:41:22.338Z,97623
2018-04-15T03:43:50.525Z,97630
2018-04-15T03:46:18.724Z,97627
2018-04-15T03:48:47.661Z,97621
2018-04-15T03:51:15.854Z,97613
2018-04-15T03:53:44.025Z,97605
2018-04-15T03:56:12.185Z,97601
2018-04-15T03:58:40.349Z,97603
2018-04-15T04:01:08.561Z,97605
2018-04-15T04:03:36.742Z,97601
2018-04-15T04:06:04.909Z,97594
2018-04-15T04:08:33.085Z,97596
2018-04-15T04:11:01.260Z,97597
2018-04-15T04:13:29.473Z,97598
2018-04-15T04:15:58.428Z,97596
2018-04-15T04:18:44.452Z,97595
2018-04-15T04:21:31.476Z,97592
2018-04-15T04:24:18.121Z,97594
2018-04-15T04:26:46.292Z,97594
2018-04-15T04:29:14.467Z,97584
2018-04-15T04:31:42.644Z,97579
2018-04-15T04:34:10.842Z,97575
2018-04-15T04:36:39.011Z,97575
2018-04-15T04:39:07.268Z,97578
2018-04-15T04:41:35.448Z,97574
2018-04-15T04:44:03.618Z,97578
2018-04-15T04:46:31.801Z,97578
2018-04-15T04:48:59.965Z,97575
2018-04-15T04:51:28.139Z,97573
2018-04-15T04:53:56.309Z,97567
2018-04-15T04:56:24.486Z,97566
2018-04-15T04:58:52.661Z,97561
2018-04-15T05:01:20.824Z,97557
2018-04-15T05:03:49.013Z,97549
2018-04-15T05:06:17.192Z,97544
2018-04-15T05:08:45.360Z,97547
2018-04-15T05:11:13.524Z,97545
2018-04-15T05:13:41.698Z,97535
2018-04-15T05:16:09.887Z,97533
2018-04-15T05:18:38.065Z,97529
2018-04-15T05:21:06.245Z,97530
2018-04-15T05:23:34.408Z,97527
2018-04-15T05:26:02.586Z,97519
2018-04-15T05:28:30.772Z,97525
2018-04-15T05:30:59.717Z,97521
2018-04-15T05:33:29.328Z,97524
2018-04-15T05:35:58.268Z,97534
2018-04-15T05:38:26.437Z,97533
2018-04-15T05:40:54.599Z,97535
2018-04-15T05:43:22.772Z,97533
2018-04-15T05:45:50.933Z,97529
2018-04-15T05:48:19.104Z,97529
2018-04-15T05:50:47.280Z,97527
2018-04-15T05:53:15.451Z,97530
2018-04-15T05:55:43.631Z,97534
2018-04-15T05:58:11.795Z,97534
2018-04-15T06:00:39.968Z,97534
2018-04-15T06:03:08.901Z,97535
2018-04-15T06:05:37.076Z,97534
2018-04-15T06:08:05.245Z,97536
2018-04-15T06:10:33.423Z,97541
2018-04-15T06:13:01.588Z,97539
2018-04-15T06:15:29.743Z,97534
2018-04-15T06:17:57.923Z,97526
2018-04-15T06:20:26.094Z,97526
2018-04-15T06:22:54.264Z,97530
2018-04-15T06:25:22.434Z,97529
2018-04-15T06:27:50.636Z,97530
2018-04-15T06:30:18.813Z,97520
2018-04-15T06:32:46.980Z,97522
2018-04-15T06:35:15.154Z,97523
2018-04-15T06:37:43.323Z,97523
2018-04-15T06:40:11.491Z,97529
2018-04-15T06:42:39.684Z,97531
2018-04-15T06:45:07.868Z,97527
2018-04-15T06:47:36.037Z,97530
2018-04-15T06:50:04.229Z,97528
2018-04-15T06:52:32.446Z,97529
2018-04-15T06:55:01.389Z,97531
2018-04-15T06:57:29.557Z,97521
2018-04-15T06:59:57.757Z,97528
2018-04-15T08:24:23.637Z,97483
2018-04-15T08:26:52.577Z,97477
2018-04-15T08:29:20.764Z,97477
2018-04-15T08:31:48.937Z,97477
2018-04-15T08:34:17.110Z,97475
2018-04-15T08:36:45.301Z,97478
2018-04-15T08:39:13.467Z,97468
2018-04-15T08:41:41.648Z,97452
2018-04-15T08:44:09.858Z,97444
2018-04-15T08:46:38.046Z,97441
2018-04-15T08:49:07.000Z,97433
2018-04-15T08:51:35.166Z,97433
2018-04-15T08:54:03.341Z,97425
2018-04-15T08:56:31.518Z,97436
2018-04-15T08:58:59.680Z,97435
2018-04-15T09:01:27.850Z,97433
2018-04-15T09:03:56.022Z,97435
2018-04-15T09:06:24.235Z,97433
2018-04-15T09:08:52.416Z,97433
2018-04-15T09:11:20.587Z,97425
2018-04-15T09:13:50.274Z,97414
2018-04-15T09:16:18.446Z,97414
2018-04-15T09:18:46.640Z,97409
2018-04-15T09:21:14.820Z,97405
2018-04-15T09:23:42.994Z,97392
2018-04-15T09:26:11.192Z,97384
2018-04-15T09:28:39.364Z,97380
2018-04-15T09:31:12.356Z,97380
2018-04-15T09:33:40.650Z,97372
2018-04-15T09:36:08.820Z,97375
2018-04-15T09:38:36.989Z,97371
2018-04-15T09:41:05.224Z,97363
2018-04-15T09:43:33.385Z,97351
2018-04-15T09:46:01.566Z,97338
2018-04-15T09:48:29.745Z,97337
2018-04-15T09:50:58.680Z,97338
2018-04-15T09:53:26.857Z,97331
2018-04-15T09:55:55.030Z,97318
2018-04-15T09:58:23.207Z,97316
2018-04-15T10:00:51.406Z,97317
2018-04-15T10:03:19.574Z,97312
2018-04-15T10:05:47.764Z,97308
2018-04-15T10:08:16.853Z,97306
2018-04-15T10:10:45.029Z,97298
2018-04-15T10:13:13.197Z,97292
2018-04-15T10:15:41.360Z,97292
2018-04-15T10:18:09.543Z,97287
2018-04-15T10:20:37.714Z,97290
2018-04-15T10:23:05.889Z,97286
2018-04-15T10:25:34.080Z,97279
2018-04-15T10:28:02.273Z,97267
2018-04-15T10:30:30.461Z,97270
2018-04-15T10:32:59.412Z,97261
2018-04-15T10:35:27.585Z,97260
2018-04-15T10:37:55.754Z,97258
2018-04-15T10:40:23.950Z,97263
2018-04-15T10:42:52.122Z,97261
2018-04-15T10:45:20.309Z,97258
2018-04-15T10:47:48.480Z,97255
2018-04-15T10:50:16.653Z,97252
2018-04-15T10:52:44.824Z,97248
2018-04-15T10:55:13.007Z,97245
2018-04-15T10:57:41.185Z,97239
2018-04-15T11:00:09.366Z,97230
2018-04-15T11:02:37.559Z,97230
2018-04-15T11:05:06.544Z,97228
2018-04-15T11:07:35.507Z,97220
2018-04-15T11:10:03.693Z,97224
2018-04-15T11:12:31.882Z,97227
2018-04-15T11:15:00.839Z,97218
2018-04-15T11:17:29.038Z,97218
2018-04-15T11:19:57.277Z,97219
2018-04-15T11:22:25.489Z,97214
2018-04-15T11:24:53.672Z,97203
2018-04-15T11:27:21.849Z,97205
2018-04-15T11:29:50.896Z,97198
2018-04-15T11:32:19.079Z,97194
2018-04-15T11:34:47.275Z,97193
2018-04-15T11:37:15.518Z,97187
2018-04-15T11:39:43.705Z,97178
2018-04-15T11:42:12.029Z,97179
2018-04-15T11:44:41.020Z,97172
2018-04-15T11:47:10.038Z,97175
2018-04-15T11:49:38.333Z,97179
2018-04-15T11:52:06.526Z,97182
2018-04-15T11:54:34.806Z,97176
2018-04-15T11:57:03.018Z,97171
2018-04-15T11:59:31.978Z,97172
2018-04-15T12:02:00.166Z,97172
2018-04-15T12:04:28.353Z,97171
2018-04-15T12:06:56.537Z,97180
2018-04-15T12:09:25.522Z,97181
2018-04-15T12:11:54.466Z,97181
2018-04-15T12:14:22.725Z,97182
2018-04-15T12:16:50.902Z,97176
2018-04-15T12:19:19.105Z,97180
2018-04-15T12:21:47.323Z,97176
2018-04-15T12:24:16.260Z,97184
2018-04-15T12:26:44.491Z,97173
2018-04-15T12:29:13.415Z,97178
2018-04-15T12:31:41.605Z,97188
2018-04-15T12:34:09.881Z,97190
2018-04-15T12:36:38.153Z,97183
2018-04-15T12:39:07.261Z,97186
2018-04-15T12:41:35.453Z,97188
2018-04-15T12:44:03.624Z,97177
2018-04-15T12:46:31.801Z,97174
2018-04-15T12:48:59.975Z,97175
2018-04-15T12:51:28.145Z,97172
2018-04-15T12:53:56.325Z,97181
2018-04-15T12:56:24.501Z,97178
2018-04-15T12:58:52.703Z,97183
2018-04-15T13:01:21.648Z,97191
2018-04-15T13:03:49.841Z,97193
2018-04-15T13:06:18.066Z,97201
2018-04-15T13:08:47.006Z,97193
2018-04-15T13:11:15.204Z,97192
2018-04-15T13:13:43.392Z,97193
2018-04-15T13:16:12.431Z,97185
2018-04-15T13:18:40.621Z,97188
2018-04-15T13:21:08.795Z,97184
2018-04-15T13:23:37.001Z,97188
2018-04-15T13:26:05.333Z,97176
2018-04-15T13:28:33.557Z,97172
2018-04-15T13:31:01.832Z,97169
2018-04-15T13:33:30.018Z,97175
2018-04-15T13:35:58.229Z,97172
2018-04-15T13:38:26.418Z,97167
2018-04-15T13:40:54.602Z,97165
2018-04-15T13:43:22.820Z,97170
2018-04-15T13:45:51.776Z,97157
2018-04-15T13:48:20.061Z,97161
2018-04-15T13:50:48.321Z,97147
2018-04-15T13:53:16.543Z,97140
2018-04-15T13:55:44.693Z,97143
2018-04-15T13:58:12.919Z,97144
2018-04-15T14:00:41.192Z,97136
2018-04-15T14:03:09.535Z,97131
2018-04-15T14:05:38.542Z,97124
2018-04-15T14:08:07.586Z,97103
2018-04-15T14:10:35.786Z,97087
2018-04-15T14:13:04.064Z,97089
2018-04-15T14:15:32.332Z,97085
2018-04-15T14:18:00.553Z,97064
2018-04-15T14:20:29.541Z,97064
2018-04-15T14:22:58.501Z,97062
2018-04-15T14:25:26.692Z,97074
2018-04-15T14:27:55.634Z,97087
2018-04-15T14:30:23.909Z,97099
2018-04-15T14:32:52.122Z,97093
2018-04-15T14:35:20.318Z,97100
2018-04-15T14:37:49.306Z,97101
2018-04-15T14:40:18.281Z,97098
2018-04-15T14:42:46.465Z,97107
2018-04-15T14:45:14.633Z,97104
2018-04-15T14:47:42.817Z,97115
2018-04-15T14:50:11.051Z,97118
2018-04-15T14:52:39.944Z,97110
2018-04-15T14:55:08.123Z,97098
2018-04-15T14:57:36.301Z,97094
2018-04-15T15:00:04.488Z,97086
2018-04-15T15:02:32.724Z,97083
2018-04-15T15:05:00.939Z,97085
2018-04-15T15:07:29.111Z,97083
2018-04-15T15:09:57.317Z,97086
2018-04-15T15:12:26.288Z,97082
2018-04-15T15:14:54.493Z,97086
2018-04-15T15:17:23.439Z,97088
2018-04-15T15:19:51.621Z,97100
2018-04-15T15:22:19.795Z,97105
2018-04-15T15:24:47.993Z,97106
2018-04-15T15:27:16.239Z,97109
2018-04-15T15:29:44.465Z,97114
2018-04-15T15:32:13.445Z,97116
2018-04-15T15:34:42.392Z,97117
2018-04-15T15:37:10.589Z,97124
2018-04-15T15:39:38.768Z,97132
2018-04-15T15:42:06.980Z,97134
2018-04-15T15:44:35.933Z,97142
2018-04-15T15:47:04.145Z,97145
2018-04-15T15:49:33.173Z,97143
2018-04-15T15:52:01.360Z,97137
2018-04-15T15:54:29.570Z,97137
2018-04-15T15:56:57.756Z,97133
2018-04-15T15:59:26.753Z,97117
2018-04-15T16:01:54.930Z,97113
2018-04-15T16:04:23.896Z,97112
2018-04-15T16:06:52.947Z,97099
2018-04-15T16:09:21.164Z,97088
2018-04-15T16:11:50.275Z,97080
2018-04-15T16:14:19.682Z,97073
2018-04-15T16:16:48.843Z,97065
2018-04-15T16:19:17.097Z,97057
2018-04-15T16:21:45.981Z,97058
2018-04-15T16:24:14.558Z,97062
2018-04-15T16:26:42.870Z,97071
2018-04-15T16:29:11.185Z,97082
2018-04-15T16:31:40.154Z,97092
2018-04-15T16:34:08.331Z,97094
2018-04-15T16:36:36.558Z,97096
2018-04-15T16:39:04.812Z,97093
2018-04-15T16:41:33.770Z,97089
2018-04-15T16:44:01.987Z,97083
2018-04-15T16:46:30.937Z,97085
2018-04-15T16:48:59.161Z,97083
2018-04-15T16:51:28.141Z,97081
2018-04-15T16:53:57.121Z,97084
2018-04-15T16:56:25.333Z,97095
2018-04-15T16:58:53.505Z,97092
2018-04-15T17:01:21.678Z,97087
2018-04-15T17:03:49.914Z,97085
2018-04-15T17:06:18.100Z,97079
2018-04-15T17:08:46.275Z,97077
2018-04-15T17:11:14.506Z,97065
2018-04-15T17:13:42.656Z,97036
2018-04-15T17:16:10.880Z,97009
2018-04-15T17:18:39.823Z,97015
2018-04-15T17:21:08.019Z,97038
2018-04-15T17:23:36.205Z,97064
2018-04-15T17:26:04.410Z,97065
2018-04-15T17:28:32.622Z,97064
2018-04-15T17:31:00.797Z,97067
2018-04-15T17:33:28.991Z,97071
2018-04-15T17:35:57.247Z,97066
2018-04-15T17:38:25.430Z,97066
2018-04-15T17:40:53.685Z,97070
2018-04-15T17:43:21.834Z,97070
2018-04-15T17:45:50.097Z,97067
2018-04-15T17:48:18.245Z,97064
2018-04-15T17:50:46.476Z,97060
2018-04-15T17:53:15.445Z,97058
2018-04-15T17:55:43.618Z,97053
2018-04-15T17:58:11.886Z,97052
2018-04-15T18:00:40.070Z,97048
2018-04-15T18:03:08.246Z,97042
2018-04-15T18:05:36.440Z,97045
2018-04-15T18:08:05.411Z,97048
2018-04-15T18:10:33.603Z,97056
2018-04-15T18:13:01.802Z,97060
2018-04-15T18:15:31.013Z,97073
2018-04-15T18:17:59.186Z,97084
2018-04-15T18:20:27.436Z,97086
2018-04-15T18:22:55.637Z,97097
2018-04-15T18:25:23.857Z,97101
2018-04-15T18:27:52.063Z,97106
2018-04-15T18:30:21.034Z,97096
2018-04-15T18:32:49.235Z,97091
2018-04-15T18:35:18.205Z,97090
2018-04-15T18:37:46.387Z,97092
2018-04-15T18:40:14.591Z,97090
2018-04-15T18:42:43.558Z,97092
2018-04-15T18:45:11.751Z,97087
2018-04-15T18:47:39.944Z,97091
2018-04-15T18:50:08.233Z,97089
2018-04-15T18:52:37.161Z,97098
2018-04-15T18:55:05.355Z,97105
2018-04-15T18:57:34.348Z,97108
2018-04-15T19:00:02.576Z,97109
2018-04-15T19:02:30.771Z,97120
2018-04-15T19:04:58.992Z,97130
2018-04-15T19:07:28.019Z,97130
2018-04-15T19:09:56.216Z,97124
2018-04-15T19:12:24.439Z,97120
2018-04-15T19:14:53.400Z,97123
2018-04-15T19:17:21.586Z,97137
2018-04-15T19:19:49.811Z,97142
2018-04-15T19:22:18.027Z,97145
2018-04-15T19:24:46.319Z,97140
2018-04-15T19:27:15.274Z,97134
2018-04-15T19:29:43.607Z,97135
2018-04-15T19:32:11.767Z,97140
2018-04-15T19:34:40.743Z,97141
2018-04-15T19:37:09.083Z,97154
2018-04-15T19:39:37.344Z,97157
2018-04-15T19:42:05.603Z,97165
2018-04-15T19:44:33.762Z,97157
2018-04-15T19:47:02.739Z,97154
2018-04-15T19:49:30.963Z,97158
2018-04-15T19:51:59.215Z,97163
2018-04-15T19:54:28.179Z,97168
2018-04-15T19:56:56.392Z,97164
2018-04-15T19:59:25.342Z,97168
2018-04-15T20:01:53.535Z,97161
2018-04-15T20:04:21.750Z,97155
2018-04-15T20:06:49.941Z,97156
2018-04-15T20:09:18.169Z,97156
2018-04-15T20:11:47.134Z,97158
2018-04-15T20:14:15.376Z,97157
2018-04-15T20:16:43.577Z,97154
2018-04-15T20:19:11.791Z,97145
2018-04-15T20:21:40.830Z,97138
2018-04-15T20:24:09.066Z,97139
2018-04-15T20:26:38.011Z,97130
2018-04-15T20:29:06.297Z,97116
2018-04-15T20:31:34.478Z,97105
2018-04-15T20:34:02.677Z,97091
2018-04-15T20:36:30.900Z,97075
2018-04-15T20:38:59.077Z,97057
2018-04-15T20:41:27.378Z,97053
2018-04-15T20:43:55.570Z,97041
2018-04-15T20:46:23.758Z,97031
2018-04-15T20:48:52.758Z,97008
2018-04-15T20:51:21.693Z,97001
2018-04-15T20:53:49.877Z,97005
2018-04-15T20:56:18.107Z,97001
2018-04-15T20:58:47.053Z,96994
2018-04-15T21:01:15.290Z,96976
2018-04-15T21:03:44.258Z,96968
2018-04-15T21:06:13.225Z,96965
2018-04-15T21:08:41.433Z,96964
2018-04-15T21:11:10.424Z,96952
2018-04-15T21:13:39.365Z,96948
2018-04-15T21:16:07.534Z,96947
2018-04-15T21:18:35.720Z,96957
2018-04-15T21:21:03.936Z,96959
2018-04-15T21:23:32.897Z,96952
2018-04-15T21:26:01.082Z,96949
2018-04-15T21:28:29.315Z,96949
2018-04-15T21:30:57.591Z,96954
2018-04-15T21:33:25.942Z,96961
2018-04-15T21:35:54.899Z,96967
2018-04-15T21:38:23.138Z,96966
2018-04-15T21:40:52.086Z,96972
2018-04-15T21:43:20.269Z,96972
2018-04-15T21:45:49.221Z,96978
2018-04-15T21:48:17.414Z,96990
2018-04-15T21:50:45.614Z,96991
2018-04-15T21:53:14.601Z,96990
2018-04-15T21:55:42.809Z,96998
2018-04-15T21:58:10.973Z,97002
2018-04-15T22:00:39.949Z,96999
2018-04-15T22:03:08.918Z,96992
2018-04-15T22:05:37.159Z,96997
2018-04-15T22:08:05.344Z,96998
2018-04-15T22:10:33.637Z,97002
2018-04-15T22:13:08.602Z,97002
2018-04-15T22:15:37.555Z,97006
2018-04-15T22:18:05.767Z,97015
2018-04-15T22:20:33.937Z,97017
2018-04-15T22:23:02.115Z,97005
2018-04-15T22:25:30.328Z,96999
2018-04-15T22:27:58.541Z,96985
2018-04-15T22:30:26.719Z,96977
2018-04-15T22:32:54.934Z,96980
2018-04-15T22:35:23.912Z,96984
2018-04-15T22:37:52.449Z,96985
2018-04-15T22:40:20.631Z,96982
2018-04-15T22:42:48.850Z,96985
2018-04-15T22:45:17.797Z,96981
2018-04-15T22:47:51.572Z,96975
2018-04-15T22:50:19.810Z,96965
2018-04-15T22:52:47.993Z,96959
2018-04-15T22:55:16.176Z,96954
2018-04-15T22:57:45.114Z,96950
2018-04-15T23:00:13.303Z,96949
2018-04-15T23:02:41.473Z,96951
2018-04-15T23:05:09.646Z,96949
2018-04-15T23:07:37.833Z,96954
2018-04-15T23:10:06.081Z,96962
2018-04-15T23:12:34.282Z,96983
2018-04-15T23:15:02.503Z,96996
2018-04-15T23:17:31.455Z,96995
2018-04-15T23:19:59.642Z,96993
2018-04-15T23:22:27.823Z,96987
2018-04-15T23:24:55.999Z,96981
2018-04-15T23:27:24.180Z,96977
2018-04-15T23:29:52.373Z,96984
2018-04-15T23:32:21.341Z,96992
2018-04-15T23:34:49.534Z,96979
2018-04-15T23:37:18.504Z,96949
2018-04-15T23:39:46.719Z,96944
2018-04-15T23:42:14.901Z,96931
2018-04-15T23:44:43.108Z,96932
2018-04-15T23:47:11.291Z,96925
2018-04-15T23:49:39.471Z,96934
2018-04-15T23:52:07.649Z,96945
2018-04-15T23:54:35.820Z,96945
2018-04-15T23:57:04.058Z,96940
2018-04-15T23:59:32.249Z,96958
